Forage Plot, Arizona (BMGR) Weather observations

Data are for 10 minute period ending at time listed.
 Day   Time   Solar   Ave.   Ave.  Ave.  Vector  Max.   Total    
  of    of     Rad.   Air    Rel.  Wind   Wind   Wind  Precip.   
Year   Day            Temp.  Hum.  Speed  Dir.   Gust            
2026   (MST)  Kw/m2    F      %     mph   deg.    mph    in.     
-----------------------------------------------------------------
 125   10:35   0.82   72.5    33    5.0   322    11.0    0.00 
 125   10:40   0.82   72.3    33    7.2   304    15.5    0.00 
 125   10:45   0.82   72.0    33    4.6   350     9.9    0.00 
 125   10:50   0.83   72.6    33    7.8   296    15.5    0.00 
 125   10:55   0.83   72.1    33    5.4   277     9.9    0.00 
 125   11:00   0.79   72.6    33    7.7   321    12.7    0.00 
 125   11:05   0.79   72.4    33    4.8   328     9.9    0.00 
 125   11:10   0.90   72.8    33    3.7   321     9.3    0.00 
 125   11:15   0.89   73.8    32    6.3   290    12.1    0.00 
 125   11:20   0.90   73.2    32    5.8   294    11.0    0.00 
 125   11:25   0.98   73.1    32    2.6   273     6.5    0.00 
 125   11:30   1.03   74.4    31    5.7   256    11.6    0.00 
 125   11:35   0.94   74.3    31    3.2   312     8.8    0.00 
 125   11:40   0.52   74.0    31    5.2   346    10.5    0.00 
 125   11:45   0.43   73.5    32    7.3   295    13.8    0.00 
 125   11:50   1.15   74.2    31    5.8   285    11.0    0.00 
 125   11:55   0.58   74.3    31    7.4   272    16.6    0.00 
 125   12:00   0.70   74.7    31    7.5   293    12.7    0.00 
 125   12:05   0.65   74.5    30    6.8   277    12.1    0.00 
 125   12:10   0.76   75.8    29    6.2   256    12.1    0.00 
 125   12:15   0.75   75.1    30    6.8   281    10.5    0.00 
 125   12:20   0.47   75.1    30    4.2   338     7.7    0.00 
 125   12:25   0.97   75.2    29    5.9   288    13.8    0.00 
 125   12:30   1.11   77.0    28    7.0   237    15.5    0.00 
 125   12:35   1.06   76.9    27    7.5   241    12.7    0.00 
 125   12:40   1.07   77.4    27    6.1   276     9.9    0.00 
 125   12:45   1.00   77.1    27    7.6   280    11.6    0.00 
 125   12:50   0.93   75.9    28    4.3   286     9.3    0.00 
 125   12:55   0.97   76.5    27    6.3   287    14.4    0.00 
 125   13:00   0.84   76.9    27    7.8   311    16.6    0.00 
 125   13:05   1.03   77.1    27    8.9   291    16.6    0.00 
 125   13:10   1.02   76.4    27    5.9   306    12.1    0.00 
 125   13:15   1.05   77.8    26    5.0   314    11.6    0.00 
 125   13:20   0.31   77.3    26    7.9   244    17.2    0.00 
 125   13:25   0.84   76.6    27    4.3   247     8.2    0.00 
 125   13:30   1.07   77.1    26    3.7   295     8.2    0.00 
 125   13:35   0.46   77.8    26    6.3   249    14.4    0.00 
 125   13:40   0.52   77.1    26   12.6   300    18.3    0.00 
 125   13:45   0.31   76.7    26    9.9   284    15.5    0.00 
 125   13:50   0.49   76.5    26   10.1   277    14.4    0.00 
 125   13:55   0.96   78.2    25    8.0   261    12.7    0.00 
 125   14:00   0.70   77.9    25    5.1   268     8.2    0.00 
 125   14:05   0.46   78.6    25    6.3   292    11.6    0.00 
 125   14:10   0.32   76.7    26    3.9   210     8.2    0.00 
 125   14:15   0.36   75.9    26    2.8   152     9.3    0.00 
 125   14:20   0.63   77.1    25    5.9   241    10.5    0.00 
 125   14:25   1.02   79.1    24    4.5   269    11.0    0.00 
 125   14:30   0.81   78.5    24    4.7   279    11.0    0.00 
 125   14:35   0.30   77.3    25    5.2   317     9.3    0.00 
 125   14:40   0.29   77.1    25    6.6   344    12.1    0.00 
 125   14:45   0.46   77.3    25    8.7   275    16.6    0.00 
 125   14:50   0.35   77.6    24    7.2   281    13.8    0.00 
 125   14:55   0.60   78.0    24   11.3   296    16.6    0.00 
 125   15:00   0.99   80.0    23    8.2   255    14.9    0.00 
 125   15:05   0.55   79.4    23   11.6   271    20.5    0.00 
 125   15:10   0.66   78.7    23   12.1   254    20.5    0.00 
 125   15:15   0.82   79.0    24    9.6   277    16.6    0.00 
 125   15:20   0.77   78.8    24   11.4   304    18.3    0.00 
 125   15:25   0.75   79.8    23   11.6   290    17.2    0.00 
 125   15:30   0.67   79.1    23    8.6   292    17.7    0.00 
 125   15:35   0.68   78.5    24   12.1   278    18.9    0.00 
 125   15:40   0.68   78.3    24   11.7   292    17.7    0.00 
 125   15:45   0.66   78.3    23    9.5   280    14.9    0.00 
 125   15:50   0.64   78.6    23   10.9   285    17.2    0.00 
 125   15:55   0.63   78.8    23   11.3   293    17.7    0.00 
 125   16:00   0.61   77.7    24    9.1   260    14.4    0.00 
 125   16:05   0.60   77.9    23   10.6   287    16.0    0.00 
 125   16:10   0.58   77.7    23    8.9   289    15.5    0.00 
 125   16:15   0.57   78.4    23    7.8   279    16.6    0.00 
 125   16:20   0.55   78.3    23   13.1   288    20.5    0.00 
 125   16:25   0.53   78.3    23   10.2   280    17.2    0.00 
 125   16:30   0.52   78.3    23   10.6   309    18.9    0.00 
 125   16:35   0.51   78.4    22   11.2   302    16.6    0.00 
 125   16:40   0.50   78.3    22    6.5   292    11.0    0.00 
 125   16:45   0.50   78.6    22    8.6   291    13.8    0.00 
 125   16:50   0.48   78.2    22   10.2   280    16.0    0.00 
 125   16:55   0.45   78.7    22    7.9   245    13.3    0.00 
 125   17:00   0.43   79.6    21    5.6   233    11.6    0.00 
 125   17:05   0.38   79.5    22    8.0   261    11.6    0.00 
 125   17:10   0.41   78.3    23    8.4   276    16.6    0.00 
 125   17:15   0.37   77.9    23    9.8   282    14.9    0.00 
 125   17:20   0.15   77.0    24    9.9   284    13.8    0.00 
 125   17:25   0.09   76.2    24   10.4   279    15.5    0.00 
 125   17:30   0.06   75.7    25    9.1   278    13.3    0.00 
 125   17:35   0.15   75.7    25    7.3   293    12.1    0.00 
 125   17:40   0.27   76.4    25    8.1   303    11.6    0.00 
 125   17:45   0.25   76.7    24    6.0   294     9.9    0.00 
 125   17:50   0.21   76.4    25    4.7   259     8.2    0.00 
 125   17:55   0.16   76.7    24    5.0   244     8.2    0.00 
 125   18:00   0.19   76.6    24    4.8   230     7.1    0.00 
 125   18:05   0.24   77.3    24    4.0   206     7.1    0.00 
 125   18:10   0.22   77.8    23    4.9   252     7.7    0.00 
 125   18:15   0.19   77.6    23    7.3   286    11.6    0.00 
 125   18:20   0.14   77.0    23    8.8   252    12.1    0.00 
 125   18:25   0.14   76.8    23    7.1   260    12.1    0.00 
 125   18:30   0.13   76.6    23    7.6   267    12.1    0.00 
 125   18:35   0.11   76.3    23    8.0   263    13.3    0.00 
 125   18:40   0.09   76.0    24    7.6   281    11.6    0.00 
 125   18:45   0.08   75.7    24    6.3   284    12.1    0.00 
 125   18:50   0.07   75.6    24    5.6   272     7.7    0.00 
 125   18:55   0.05   75.4    24    4.9   269     7.7    0.00 
 125   19:00   0.04   75.1    24    6.0   278     9.9    0.00 
 125   19:05   0.03   74.7    25    7.6   283    11.0    0.00 
 125   19:10   0.01   74.4    25    6.4   278     9.9    0.00 
 125   19:15   0.01   74.2    25    6.3   273    11.0    0.00 
 125   19:20   0.01   73.9    25    6.2   277     8.8    0.00 
 125   19:25   0.00   73.7    25    6.3   285     9.3    0.00 
 125   19:30   0.00   73.6    25    5.8   288     9.3    0.00 
 125   19:35   0.00   73.4    25    4.8   290     8.2    0.00 
 125   19:40   0.00   73.1    26    4.4   298     7.7    0.00 
 125   19:45   0.00   72.7    26    3.5   310     4.9    0.00 
 125   19:50   0.00   72.2    26    3.2   309     4.9    0.00 
 125   19:55   0.00   71.8    27    0.9   287     6.0    0.00 
 125   20:00   0.00   72.0    27    3.6   302     5.4    0.00 
 125   20:05   0.00   71.9    28    4.4   313     7.7    0.00 
 125   20:10   0.00   71.7    28    3.8   306     5.4    0.00 
 125   20:15   0.00   71.3    29    4.2   311     7.1    0.00 
 125   20:20   0.00   71.1    29    1.9   314     6.5    0.00 
 125   20:25   0.00   70.8    30    2.6   304     6.5    0.00 
 125   20:30   0.00   70.6    30    2.6   302     6.5    0.00 
 125   20:35   0.00   70.7    30    3.4   300     5.4    0.00 
 125   20:40   0.00   70.4    30    0.3   297     4.3    0.00 
 125   20:45   0.00   69.6    30    0.0     0     0.0    0.00 
 125   20:50   0.00   68.3    31    0.3   189     3.8    0.00 
 125   20:55   0.00   68.5    31    3.6   188     5.4    0.00 
 125   21:00   0.00   69.2    31    2.1   193     4.3    0.00 
 125   21:05   0.00   69.1    31    0.0   212     1.0    0.00 
 125   21:10   0.00   68.6    31    0.0   270     1.5    0.00 
 125   21:15   0.00   68.3    31    0.0   276     1.0    0.00 
 125   21:20   0.00   67.9    32    0.0   278     1.5    0.00 
 125   21:25   0.00   68.2    33    0.1   283     2.1    0.00 
 125   21:30   0.00   68.8    33    0.0     0     0.0    0.00 
 125   21:35   0.00   68.7    33    0.0     0     0.0    0.00 
 125   21:40   0.00   67.8    33    0.0     0     0.0    0.00 
 125   21:45   0.00   67.4    34    0.0     0     0.0    0.00 
 125   21:50   0.00   67.7    34    1.0   246     4.9    0.00 
 125   21:55   0.00   68.0    33    4.0   272     5.4    0.00 
 125   22:00   0.00   68.5    33    5.1   271     7.7    0.00 
 125   22:05   0.00   68.6    33    5.4   273     7.7    0.00 
 125   22:10   0.00   68.5    33    5.9   269     8.2    0.00 
 125   22:15   0.00   68.3    33    5.1   270     7.1    0.00 
 125   22:20   0.00   68.0    33    5.0   271     6.5    0.00 
 125   22:25   0.00   67.7    34    5.3   268     8.8    0.00 
 125   22:30   0.00   67.9    33    5.2   271     7.7    0.00 
 125   22:35   0.00   67.7    34    5.6   268     8.2    0.00 
 125   22:40   0.00   67.6    34    5.4   272     7.7    0.00 
 125   22:45   0.00   67.4    34    5.2   275     7.7    0.00 
 125   22:50   0.00   67.4    34    5.4   273     8.2    0.00 
 125   22:55   0.00   67.2    34    4.8   275     7.1    0.00 
 125   23:00   0.00   67.0    34    5.3   271     7.7    0.00 
 125   23:05   0.00   66.8    34    5.8   269     8.8    0.00 
 125   23:10   0.00   66.9    34    5.9   275     8.8    0.00 
 125   23:15   0.00   67.0    34    7.0   278    11.0    0.00 
 125   23:20   0.00   66.9    34    7.1   274    11.0    0.00 
 125   23:25   0.00   66.7    34    6.6   277    10.5    0.00 
 125   23:30   0.00   66.3    34    5.7   281     9.3    0.00 
 125   23:35   0.00   66.0    35    5.1   280     8.8    0.00 
 125   23:40   0.00   65.7    35    4.5   278     6.5    0.00 
 125   23:45   0.00   65.4    35    4.2   282     7.7    0.00 
 125   23:50   0.00   65.0    35    2.7   294     4.9    0.00 
 125   23:55   0.00   64.7    36    2.4   290     4.3    0.00 
 126    0:00   0.00   64.4    36    1.5   299     3.8    0.00 
 126    0:05   0.00   63.8    36    0.0     0     0.0    0.00 
 126    0:10   0.00   63.3    37    0.0     0     0.0    0.00 
 126    0:15   0.00   63.2    37    0.5   296     2.6    0.00 
 126    0:20   0.00   63.5    37    1.1   287     3.2    0.00 
 126    0:25   0.00   63.4    37    0.7   334     3.2    0.00 
 126    0:30   0.00   63.1    38    0.0     0     0.0    0.00 
 126    0:35   0.00   63.3    38    0.8   295     4.3    0.00 
 126    0:40   0.00   63.6    37    1.7   327     3.8    0.00 
 126    0:45   0.00   63.1    38    1.3   324     2.6    0.00 
 126    0:50   0.00   63.0    38    1.2   324     2.6    0.00 
 126    0:55   0.00   62.7    38    0.7   324     2.1    0.00 
 126    1:00   0.00   62.3    38    0.6   324     2.1    0.00 
 126    1:05   0.00   62.4    38    1.9   324     2.6    0.00 
 126    1:10   0.00   62.9    38    0.2   206     2.6    0.00 
 126    1:15   0.00   62.7    38    0.0     0     0.0    0.00 
 126    1:20   0.00   62.6    38    1.0   268     3.2    0.00 
 126    1:25   0.00   62.1    38    0.5   253     2.1    0.00 
 126    1:30   0.00   60.2    39    0.7   258     2.1    0.00 
 126    1:35   0.00   59.4    41    0.0     0     0.0    0.00 
 126    1:40   0.00   59.3    42    0.1   220     1.5    0.00 
 126    1:45   0.00   59.9    42    0.6   216     2.1    0.00 
 126    1:50   0.00   60.4    40    0.0     0     0.0    0.00 
 126    1:55   0.00   59.6    40    1.1   186     2.6    0.00 
 126    2:00   0.00   59.6    40    1.4   202     2.6    0.00 
 126    2:05   0.00   60.0    40    1.8   201     3.2    0.00 
 126    2:10   0.00   59.6    40    0.7   227     2.1    0.00 
 126    2:15   0.00   59.3    40    0.0     0     0.0    0.00 
 126    2:20   0.00   58.8    41    0.2   220     2.1    0.00 
 126    2:25   0.00   58.7    41    2.3   250     3.8    0.00 
 126    2:30   0.00   59.1    40    2.3   262     4.9    0.00 
 126    2:35   0.00   58.9    40    1.0    53     2.6    0.00 
 126    2:40   0.00   57.6    42    2.4   100     3.2    0.00 
 126    2:45   0.00   58.3    41    1.4   117     2.6    0.00 
 126    2:50   0.00   57.9    41    1.4    93     3.2    0.00 
 126    2:55   0.00   56.6    42    2.5    99     3.2    0.00 
 126    3:00   0.00   56.6    43    2.3   100     3.2    0.00 
 126    3:05   0.00   56.4    43    1.8   102     2.6    0.00 
 126    3:10   0.00   56.0    43    2.2   104     3.2    0.00 
 126    3:15   0.00   55.8    43    1.7   105     2.6    0.00 
 126    3:20   0.00   56.3    44    0.2   105     1.5    0.00 
 126    3:25   0.00   57.2    43    0.1   105     1.5    0.00 
 126    3:30   0.00   58.1    43    0.5   168     2.6    0.00 
 126    3:35   0.00   57.9    42    1.5   126     3.2    0.00 
 126    3:40   0.00   56.7    43    2.8   101     3.8    0.00 
 126    3:45   0.00   57.1    43    1.5   105     3.8    0.00 
 126    3:50   0.00   57.8    43    0.1   297     1.5    0.00 
 126    3:55   0.00   58.0    42    0.3   296     2.1    0.00 
 126    4:00   0.00   57.2    43    0.8    91     4.3    0.00 
 126    4:05   0.00   56.5    44    3.6    99     4.3    0.00 
 126    4:10   0.00   56.8    44    1.7    95     4.3    0.00 
 126    4:15   0.00   58.4    43    1.2    59     3.8    0.00 
 126    4:20   0.00   58.7    42    0.2    49     2.1    0.00 
 126    4:25   0.00   58.5    43    0.4   144     2.1    0.00 
 126    4:30   0.00   58.5    42    0.1   173     1.5    0.00 
 126    4:35   0.00   57.0    43    0.9    61     2.1    0.00 
 126    4:40   0.00   56.2    44    0.1    67     1.5    0.00 
 126    4:45   0.00   56.0    45    0.1    59     1.5    0.00 
 126    4:50   0.00   55.5    45    1.1    59     2.1    0.00 
 126    4:55   0.00   55.3    46    1.1    61     2.1    0.00 
 126    5:00   0.00   55.6    45    1.5    99     2.1    0.00 
 126    5:05   0.00   54.7    46    2.0   108     2.6    0.00 
 126    5:10   0.00   53.8    46    2.9   105     3.8    0.00 
 126    5:15   0.00   54.2    46    2.4   107     3.2    0.00 
 126    5:20   0.00   53.7    46    2.4   108     3.2    0.00 
 126    5:25   0.00   53.6    47    2.3   100     3.2    0.00 
 126    5:30   0.00   53.7    46    2.4   115     3.2    0.00 
 126    5:35   0.00   52.7    47    2.5   110     3.2    0.00 
 126    5:40   0.00   52.8    48    2.4   115     3.2    0.00 
 126    5:45   0.01   53.0    48    2.0   120     2.6    0.00 
 126    5:50   0.01   52.9    48    2.3   129     3.2    0.00 
 126    5:55   0.01   51.8    47    2.7   108     3.2    0.00 
 126    6:00   0.01   52.3    48    2.4   113     3.2    0.00 
 126    6:05   0.02   53.2    48    1.8   128     3.2    0.00 
 126    6:10   0.04   52.5    46    2.7   114     3.8    0.00 
 126    6:15   0.06   52.6    46    2.1   178     3.2    0.00 
 126    6:20   0.07   53.0    46    2.3   184     2.6    0.00 
 126    6:25   0.08   53.8    45    2.3   149     3.2    0.00 
 126    6:30   0.09   54.5    44    2.5   148     3.8    0.00 
 126    6:35   0.11   55.1    43    2.3   166     3.2    0.00 
 126    6:40   0.12   55.9    43    2.0   148     3.2    0.00 
 126    6:45   0.14   56.9    41    2.6   155     3.8    0.00 
 126    6:50   0.15   57.7    41    2.1   170     3.2    0.00 
 126    6:55   0.16   58.9    41    2.6   161     3.8    0.00 
 126    7:00   0.18   60.0    40    2.9   152     4.9    0.00 
 126    7:05   0.20   60.6    40    3.3   153     4.9    0.00 
 126    7:10   0.21   60.9    39    3.6   137     5.4    0.00 
 126    7:15   0.23   61.3    39    3.5   139     4.9    0.00 
 126    7:20   0.24   62.0    38    3.1   141     4.3    0.00 
 126    7:25   0.26   62.8    38    2.8   151     4.3    0.00 
 126    7:30   0.28   63.5    37    2.4   152     3.8    0.00 
 126    7:35   0.29   64.1    37    2.1   160     3.2    0.00 
 126    7:40   0.31   64.6    36    1.4   163     3.2    0.00 
 126    7:45   0.33   65.3    36    1.5   144     2.6    0.00 
 126    7:50   0.34   66.1    35    1.2   144     3.2    0.00 
 126    7:55   0.36   66.5    35    0.7   159     2.6    0.00 
 126    8:00   0.37   67.9    34    0.8   215     3.2    0.00 
 126    8:05   0.39   67.9    33    1.0   199     2.6    0.00 
 126    8:10   0.41   68.2    33    1.4   214     3.8    0.00 
 126    8:15   0.42   68.3    33    1.2   188     3.2    0.00 
 126    8:20   0.44   68.7    32    2.3   174     4.3    0.00 
 126    8:25   0.46   68.4    32    2.6   169     4.3    0.00 
 126    8:30   0.47   69.2    32    2.1   185     3.8    0.00 
 126    8:35   0.49   69.6    31    0.9   180     3.8    0.00 
 126    8:40   0.50   69.7    31    2.2   188     4.3    0.00 
 126    8:45   0.52   70.7    30    0.9   171     3.8    0.00 
 126    8:50   0.53   70.2    30    2.2   125     4.3    0.00 
 126    8:55   0.55   71.0    29    1.4   117     3.8    0.00 
 126    9:00   0.56   72.0    28    2.4   210     4.3    0.00 
 126    9:05   0.58   72.5    28    1.4   299     5.4    0.00 
 126    9:10   0.59   72.4    28    3.2    12     4.9    0.00 
 126    9:15   0.61   72.4    28    2.0   342     6.0    0.00 
 126    9:20   0.62   72.3    28    3.6   313     6.0    0.00 
 126    9:25   0.64   72.3    28    2.6   348     5.4    0.00 
 126    9:30   0.65   72.9    27    1.5     6     4.9    0.00 
 126    9:35   0.66   73.2    27    3.1   349     4.9    0.00 
 126    9:40   0.68   73.2    27    2.2   339     4.3    0.00 
 126    9:45   0.69   73.5    27    4.5    14     6.5    0.00 
 126    9:50   0.70   73.7    27    2.2   351     4.9    0.00 
 126    9:55   0.71   73.6    27    3.0   340     6.0    0.00 
 126   10:00   0.73   73.9    27    1.1    92     3.2    0.00 
 126   10:05   0.74   74.3    27    4.4    26     7.1    0.00 
 126   10:10   0.75   74.6    27    3.3   352     6.5    0.00 
 126   10:15   0.76   74.6    27    2.3   323     5.4    0.00 
 126   10:20   0.77   75.1    26    1.6   318     3.8    0.00 
 126   10:25   0.78   75.2    26    2.6   243     4.3    0.00 
 126   10:30   0.79   75.9    26    3.5   311     8.8    0.00 

Return to Forage Plot graphs page.


Western Regional Climate Center,wrcc@dri.edu